Terminal Aerodrome Forecast
Issued by NWS Pittsburgh, PA

Current Version | Previous Version | Graphics & Text | Print | Product List | Glossary On
Versions: 1 2 3 4 5 6 7 8 9 10 11 12 13 14 15 16 17 18 19 20 21 22 23 24 25 26 27 28 29 30 31 32
052
FTUS41 KPBZ 270533
TAFPIT
TAF
KPIT 270533Z 2706/2812 15007KT P6SM SCT006 OVC015
      TEMPO 2706/2708 4SM -SHRA BKN025
     FM271400 23008KT P6SM OVC035
     FM280200 18003KT P6SM VCSH BKN090=

USA.gov is the U.S. government's official web portal to all federal, state and local government web resources and services.